createdAt,value
2022-12-27T00:02:03.531Z,17.00
2022-12-27T00:04:33.006Z,19.57
2022-12-27T00:07:03.706Z,20.03
2022-12-27T00:09:32.995Z,19.73
2022-12-27T00:12:02.749Z,30.50
2022-12-27T00:14:31.914Z,26.37
2022-12-27T00:17:01.168Z,20.17
2022-12-27T00:19:30.375Z,22.63
2022-12-27T00:21:59.665Z,22.20
2022-12-27T00:24:30.341Z,23.20
2022-12-27T00:26:59.681Z,21.30
2022-12-27T00:29:28.895Z,18.90
2022-12-27T00:31:58.614Z,20.53
2022-12-27T00:34:27.820Z,20.90
2022-12-27T00:36:57.002Z,22.70
2022-12-27T00:39:26.165Z,20.53
2022-12-27T00:41:56.827Z,29.37
2022-12-27T00:44:25.922Z,29.50
2022-12-27T00:46:55.171Z,22.40
2022-12-27T00:49:24.489Z,23.70
2022-12-27T00:51:53.740Z,23.00
2022-12-27T00:54:22.934Z,19.10
2022-12-27T00:56:52.142Z,26.10
2022-12-27T00:59:22.690Z,21.33
2022-12-27T01:01:51.942Z,28.00
2022-12-27T01:04:21.223Z,18.50
2022-12-27T01:06:50.419Z,18.47
2022-12-27T01:09:19.542Z,20.60
2022-12-27T01:11:48.851Z,22.30
2022-12-27T01:14:18.053Z,23.17
2022-12-27T01:16:48.802Z,20.20
2022-12-27T01:19:18.451Z,21.13
2022-12-27T01:21:47.684Z,22.60
2022-12-27T01:24:16.952Z,20.33
2022-12-27T01:26:46.234Z,19.00
2022-12-27T01:29:15.431Z,18.30
2022-12-27T01:31:44.807Z,19.30
2022-12-27T01:34:15.444Z,15.00
2022-12-27T01:36:45.213Z,23.93
2022-12-27T01:39:14.970Z,13.87
2022-12-27T01:42:02.497Z,12.20
2022-12-27T01:45:02.277Z,13.50
2022-12-27T01:47:37.713Z,12.50
2022-12-27T01:50:16.533Z,13.13
2022-12-27T01:52:47.906Z,14.00
2022-12-27T01:55:21.034Z,15.67
2022-12-27T01:57:51.261Z,14.67
2022-12-27T02:00:20.520Z,12.57
2022-12-27T02:02:50.259Z,13.10
2022-12-27T02:05:21.871Z,20.63
2022-12-27T02:08:05.926Z,13.03
2022-12-27T02:10:35.786Z,13.63
2022-12-27T02:13:06.989Z,12.10
2022-12-27T02:15:36.219Z,17.77
2022-12-27T02:18:05.692Z,19.00
2022-12-27T02:20:40.373Z,20.10
2022-12-27T02:23:49.432Z,13.37
2022-12-27T02:26:36.325Z,18.03
2022-12-27T02:29:14.544Z,17.40
2022-12-27T02:31:50.313Z,17.43
2022-12-27T02:34:20.835Z,12.13
2022-12-27T02:36:53.263Z,16.20
2022-12-27T02:39:22.928Z,11.87
2022-12-27T02:42:10.279Z,16.43
2022-12-27T02:45:12.727Z,15.17
2022-12-27T02:47:59.168Z,16.43
2022-12-27T02:50:48.965Z,19.23
2022-12-27T02:53:20.847Z,13.57
2022-12-27T02:56:11.508Z,15.17
2022-12-27T02:58:47.119Z,8.13
2022-12-27T03:01:38.088Z,10.23
2022-12-27T03:04:15.789Z,12.13
2022-12-27T03:06:55.239Z,14.97
2022-12-27T03:09:50.028Z,10.03
2022-12-27T03:12:44.224Z,13.13
2022-12-27T03:15:38.747Z,12.90
2022-12-27T03:18:11.920Z,15.70
2022-12-27T03:20:59.542Z,12.80
2022-12-27T03:23:47.718Z,11.10
2022-12-27T03:26:17.575Z,12.43
2022-12-27T03:29:05.471Z,14.73
2022-12-27T03:31:54.100Z,14.37
2022-12-27T03:34:38.465Z,11.07
2022-12-27T03:37:26.864Z,13.10
2022-12-27T03:39:58.637Z,8.20
2022-12-27T03:42:46.777Z,7.37
2022-12-27T03:45:16.466Z,14.03
2022-12-27T03:47:48.487Z,11.50
2022-12-27T03:50:23.367Z,12.73
2022-12-27T03:52:56.691Z,8.60
2022-12-27T03:55:33.016Z,9.77
2022-12-27T03:58:03.207Z,12.43
2022-12-27T04:00:32.367Z,10.23
2022-12-27T04:03:01.744Z,11.33
2022-12-27T04:05:32.878Z,16.60
2022-12-27T04:08:19.751Z,8.53
2022-12-27T04:11:06.774Z,8.83
2022-12-27T04:13:54.780Z,13.43
2022-12-27T04:16:41.351Z,9.43
2022-12-27T04:19:28.232Z,9.47
2022-12-27T04:22:16.707Z,19.03
2022-12-27T04:25:03.277Z,7.83
2022-12-27T04:27:50.196Z,11.13
2022-12-27T04:30:37.374Z,16.80
2022-12-27T04:33:24.081Z,11.73
2022-12-27T04:35:53.366Z,11.40
2022-12-27T04:38:23.898Z,12.37
2022-12-27T04:41:10.913Z,8.13
2022-12-27T04:43:57.880Z,9.77
2022-12-27T04:46:45.844Z,8.73
2022-12-27T04:49:45.704Z,13.60
2022-12-27T04:52:33.808Z,7.10
2022-12-27T04:55:12.468Z,11.03
2022-12-27T04:57:41.729Z,8.70
2022-12-27T05:00:28.759Z,14.47
2022-12-27T05:02:59.521Z,8.40
2022-12-27T05:05:29.051Z,7.47
2022-12-27T05:08:17.481Z,9.73
2022-12-27T05:11:05.873Z,7.10
2022-12-27T05:13:52.881Z,6.67
2022-12-27T05:16:22.231Z,8.00
2022-12-27T05:18:51.393Z,12.60
2022-12-27T05:21:20.706Z,10.27
2022-12-27T05:24:07.379Z,10.60
2022-12-27T05:26:38.637Z,8.27
2022-12-27T05:29:08.335Z,8.20
2022-12-27T05:31:37.710Z,8.70
2022-12-27T05:34:07.669Z,10.63
2022-12-27T05:36:36.813Z,8.83
2022-12-27T05:39:06.213Z,6.73
2022-12-27T05:41:35.552Z,5.03
2022-12-27T05:44:07.616Z,13.33
2022-12-27T05:46:37.294Z,8.50
2022-12-27T05:49:06.440Z,7.63
2022-12-27T05:51:35.733Z,10.57
2022-12-27T05:54:04.874Z,6.60
2022-12-27T05:56:35.607Z,13.10
2022-12-27T05:59:08.299Z,8.13
2022-12-27T06:01:37.643Z,8.43
2022-12-27T06:04:07.037Z,10.63
2022-12-27T06:06:36.640Z,7.73
2022-12-27T06:09:05.872Z,11.40
2022-12-27T06:11:35.071Z,11.80
2022-12-27T06:14:04.306Z,10.40
2022-12-27T06:16:35.146Z,8.20
2022-12-27T06:19:04.471Z,9.87
2022-12-27T06:21:34.076Z,8.77
2022-12-27T06:24:03.424Z,7.13
2022-12-27T06:26:32.610Z,8.83
2022-12-27T06:29:02.482Z,9.33
2022-12-27T06:31:31.676Z,13.30
2022-12-27T06:34:02.338Z,13.53
2022-12-27T06:36:32.961Z,18.93
2022-12-27T06:39:02.459Z,15.13
2022-12-27T06:41:31.680Z,18.67
2022-12-27T06:44:01.028Z,13.23
2022-12-27T06:46:30.246Z,16.27
2022-12-27T06:48:59.554Z,16.17
2022-12-27T06:51:30.224Z,13.30
2022-12-27T06:53:59.482Z,25.97
2022-12-27T06:56:28.632Z,27.87
2022-12-27T06:58:58.290Z,30.47
2022-12-27T07:01:28.593Z,31.87
2022-12-27T07:03:58.997Z,16.67
2022-12-27T07:06:29.641Z,13.30
2022-12-27T07:09:00.600Z,12.13
2022-12-27T07:11:30.012Z,15.40
2022-12-27T07:13:59.228Z,21.03
2022-12-27T07:16:29.521Z,17.40
2022-12-27T07:18:59.572Z,39.77
2022-12-27T07:21:29.884Z,18.87
2022-12-27T07:24:00.633Z,16.00
2022-12-27T07:26:30.870Z,15.13
2022-12-27T07:29:00.888Z,18.23
2022-12-27T07:31:31.747Z,19.23
2022-12-27T07:34:02.425Z,41.43
2022-12-27T07:36:34.402Z,24.83
2022-12-27T07:39:05.515Z,18.33
2022-12-27T07:41:34.722Z,21.97
2022-12-27T07:44:04.370Z,10.40
2022-12-27T07:46:34.263Z,14.90
2022-12-27T07:49:03.456Z,12.53
2022-12-27T07:51:32.842Z,17.67
2022-12-27T07:54:02.042Z,11.60
2022-12-27T07:56:32.828Z,13.00
2022-12-27T07:59:02.906Z,18.20
2022-12-27T08:01:53.090Z,11.90
2022-12-27T08:04:22.622Z,15.07
2022-12-27T08:06:52.818Z,14.60
2022-12-27T08:09:23.055Z,16.10
2022-12-27T08:11:53.913Z,19.97
2022-12-27T08:14:23.206Z,20.37
2022-12-27T08:16:52.742Z,16.13
2022-12-27T08:19:21.970Z,18.17
2022-12-27T08:21:51.416Z,16.80
2022-12-27T08:24:20.640Z,18.53
2022-12-27T08:26:50.108Z,16.87
2022-12-27T08:29:20.880Z,23.70
2022-12-27T08:31:50.159Z,24.20
2022-12-27T08:34:19.416Z,15.87
2022-12-27T08:36:56.388Z,18.00
2022-12-27T08:39:26.339Z,22.83
2022-12-27T08:41:55.680Z,19.10
2022-12-27T08:44:27.606Z,30.57
2022-12-27T08:46:56.961Z,22.07
2022-12-27T08:49:26.168Z,27.13
2022-12-27T08:51:55.945Z,25.73
2022-12-27T08:54:25.287Z,28.73
2022-12-27T08:56:54.586Z,20.93
2022-12-27T08:59:23.857Z,35.47
2022-12-27T09:01:54.835Z,23.83
2022-12-27T09:04:24.222Z,30.00
2022-12-27T09:06:53.712Z,40.07
2022-12-27T09:09:22.923Z,32.23
2022-12-27T09:11:52.151Z,29.80
2022-12-27T09:14:21.501Z,38.00
2022-12-27T09:16:51.836Z,25.40
2022-12-27T09:19:22.569Z,29.10
2022-12-27T09:21:51.961Z,29.07
2022-12-27T09:24:21.117Z,28.43
2022-12-27T09:26:50.614Z,46.60
2022-12-27T09:29:19.779Z,41.13
2022-12-27T09:31:49.175Z,43.00
2022-12-27T09:34:18.551Z,48.40
2022-12-27T09:36:49.424Z,27.53
2022-12-27T09:39:18.799Z,32.60
2022-12-27T09:44:45.876Z,43.77
2022-12-27T09:47:17.478Z,36.47
2022-12-27T09:49:48.046Z,35.17
2022-12-27T09:52:21.882Z,43.80
2022-12-27T09:55:02.650Z,54.53
2022-12-27T09:57:36.665Z,46.03
2022-12-27T10:00:08.776Z,36.90
2022-12-27T10:02:38.378Z,31.47
2022-12-27T10:05:20.765Z,34.97
2022-12-27T10:08:04.150Z,39.10
2022-12-27T10:10:39.782Z,38.97
2022-12-27T10:13:15.561Z,31.97
2022-12-27T10:15:48.736Z,35.17
2022-12-27T10:18:23.087Z,22.57
2022-12-27T10:20:57.928Z,18.87
2022-12-27T10:23:30.572Z,33.33
2022-12-27T10:26:01.197Z,23.13
2022-12-27T10:28:34.711Z,19.60
2022-12-27T10:31:04.777Z,17.10
2022-12-27T10:33:35.984Z,14.90
2022-12-27T10:36:09.050Z,20.30
2022-12-27T10:38:39.653Z,15.37
2022-12-27T10:41:19.674Z,19.57
2022-12-27T10:43:50.568Z,20.63
2022-12-27T10:46:21.903Z,15.37
2022-12-27T10:49:20.217Z,13.87
2022-12-27T10:51:45.644Z,12.60
2022-12-27T10:54:18.269Z,13.53
2022-12-27T10:56:47.782Z,7.30
2022-12-27T10:59:18.264Z,8.77
2022-12-27T11:01:51.393Z,16.13
2022-12-27T11:04:22.326Z,8.33
2022-12-27T11:06:52.868Z,8.70
2022-12-27T11:09:34.153Z,8.60
2022-12-27T11:12:29.034Z,14.73
2022-12-27T11:14:59.891Z,7.93
2022-12-27T11:17:31.439Z,13.93
2022-12-27T11:20:03.399Z,12.43
2022-12-27T11:22:32.717Z,8.33
2022-12-27T11:25:03.398Z,10.67
2022-12-27T11:27:32.901Z,12.50
2022-12-27T11:30:02.171Z,13.90
2022-12-27T11:32:31.438Z,8.00
2022-12-27T11:35:00.950Z,18.40
2022-12-27T11:37:30.299Z,7.63
2022-12-27T11:40:16.010Z,8.90
2022-12-27T11:42:46.519Z,8.23
2022-12-27T11:45:21.888Z,10.00
2022-12-27T11:47:53.677Z,11.03
2022-12-27T11:50:40.849Z,9.17
2022-12-27T11:53:14.532Z,7.10
2022-12-27T11:55:53.441Z,9.50
2022-12-27T11:58:45.984Z,9.40
2022-12-27T12:01:31.470Z,15.07
2022-12-27T12:04:19.318Z,22.07
2022-12-27T12:06:53.226Z,8.33
2022-12-27T12:09:40.079Z,7.37
2022-12-27T12:12:33.195Z,13.17
2022-12-27T12:15:14.485Z,13.43
2022-12-27T12:18:09.253Z,9.37
2022-12-27T12:20:56.164Z,12.27
2022-12-27T12:23:29.927Z,10.20
2022-12-27T12:26:08.065Z,20.00
2022-12-27T12:28:59.129Z,6.57
2022-12-27T12:31:38.403Z,6.47
2022-12-27T12:34:20.305Z,9.50
2022-12-27T12:37:05.179Z,8.60
2022-12-27T12:39:48.802Z,20.03
2022-12-27T12:42:22.970Z,8.70
2022-12-27T12:45:05.253Z,8.00
2022-12-27T12:47:45.528Z,8.80
2022-12-27T12:50:26.277Z,8.13
2022-12-27T12:53:16.613Z,7.73
2022-12-27T12:55:56.545Z,9.17
2022-12-27T12:58:37.922Z,7.60
2022-12-27T13:01:15.486Z,12.90
2022-12-27T13:03:52.448Z,15.47
2022-12-27T13:06:32.193Z,8.00
2022-12-27T13:09:05.288Z,16.30
2022-12-27T13:11:42.836Z,7.80
2022-12-27T13:14:29.355Z,10.63
2022-12-27T13:17:03.582Z,12.20
2022-12-27T13:19:41.090Z,11.03
2022-12-27T13:22:14.420Z,6.07
2022-12-27T13:24:48.053Z,9.37
2022-12-27T13:27:23.350Z,9.23
2022-12-27T13:30:04.716Z,14.70
2022-12-27T13:32:45.945Z,12.97
2022-12-27T13:35:22.202Z,12.93
2022-12-27T13:37:57.675Z,7.13
2022-12-27T13:40:34.345Z,9.00
2022-12-27T13:43:20.503Z,11.33
2022-12-27T13:45:57.768Z,6.07
2022-12-27T13:48:41.820Z,10.20
2022-12-27T13:51:18.748Z,10.40
2022-12-27T13:54:07.672Z,6.63
2022-12-27T13:56:55.541Z,10.57
2022-12-27T13:59:34.936Z,6.83
2022-12-27T14:02:11.713Z,8.17
2022-12-27T14:04:59.287Z,11.37
2022-12-27T14:07:36.031Z,5.43
2022-12-27T14:10:11.559Z,7.17
2022-12-27T14:12:58.802Z,8.30
2022-12-27T14:15:29.942Z,10.00
2022-12-27T14:18:09.781Z,10.17
2022-12-27T14:20:48.554Z,8.17
2022-12-27T14:23:26.592Z,14.73
2022-12-27T14:26:10.190Z,4.80
2022-12-27T14:28:50.593Z,6.03
2022-12-27T14:31:33.767Z,16.47
2022-12-27T14:34:16.532Z,7.73
2022-12-27T14:36:59.769Z,8.30
2022-12-27T14:39:46.971Z,15.03
2022-12-27T14:42:33.858Z,8.60
2022-12-27T14:45:30.109Z,5.93
2022-12-27T14:48:19.115Z,6.20
2022-12-27T14:54:31.318Z,8.07
2022-12-27T14:57:05.892Z,6.83
2022-12-27T14:59:40.814Z,8.63
2022-12-27T15:02:22.223Z,11.40
2022-12-27T15:04:56.934Z,8.57
2022-12-27T15:07:51.103Z,10.43
2022-12-27T15:10:26.047Z,7.83
2022-12-27T15:13:03.801Z,8.93
2022-12-27T15:15:38.600Z,8.50
2022-12-27T15:18:21.066Z,8.67
2022-12-27T15:20:58.905Z,8.50
2022-12-27T15:23:31.407Z,9.00
2022-12-27T15:26:13.689Z,12.80
2022-12-27T15:28:53.802Z,11.13
2022-12-27T15:31:27.761Z,16.97
2022-12-27T15:34:04.505Z,6.60
2022-12-27T15:36:40.418Z,6.20
2022-12-27T15:39:40.735Z,10.23
2022-12-27T15:42:13.705Z,6.90
2022-12-27T15:44:50.872Z,6.53
2022-12-27T15:47:44.260Z,6.70
2022-12-27T15:50:23.492Z,9.07
2022-12-27T15:53:03.006Z,15.83
2022-12-27T15:55:40.784Z,7.10
2022-12-27T15:58:15.190Z,9.30
2022-12-27T16:00:47.029Z,8.03
2022-12-27T16:03:37.761Z,9.33
2022-12-27T16:06:08.307Z,8.73
2022-12-27T16:08:39.837Z,7.23
2022-12-27T16:11:11.131Z,7.53
2022-12-27T16:13:43.293Z,7.27
2022-12-27T16:16:35.356Z,7.20
2022-12-27T16:19:21.532Z,7.30
2022-12-27T16:21:50.816Z,7.70
2022-12-27T16:24:21.136Z,6.87
2022-12-27T16:26:55.620Z,6.80
2022-12-27T16:29:28.872Z,6.00
2022-12-27T16:32:12.993Z,6.47
2022-12-27T16:34:44.545Z,13.70
2022-12-27T16:37:24.181Z,13.90
2022-12-27T16:40:08.656Z,14.20
2022-12-27T16:43:03.029Z,13.03
2022-12-27T16:45:37.497Z,10.50
2022-12-27T16:48:11.090Z,13.47
2022-12-27T16:50:47.974Z,12.37
2022-12-27T16:53:28.771Z,12.37
2022-12-27T16:56:12.678Z,13.17
2022-12-27T16:58:42.176Z,11.73
2022-12-27T17:01:50.057Z,8.83
2022-12-27T17:04:34.581Z,18.40
2022-12-27T17:07:07.315Z,11.73
2022-12-27T17:09:46.573Z,10.53
2022-12-27T17:12:21.057Z,12.33
2022-12-27T17:14:50.778Z,12.60
2022-12-27T17:17:22.758Z,14.90
2022-12-27T17:20:02.079Z,14.73
2022-12-27T17:22:36.038Z,15.03
2022-12-27T17:25:06.240Z,10.70
2022-12-27T17:27:48.919Z,16.23
2022-12-27T17:30:21.285Z,8.93
2022-12-27T17:32:58.551Z,12.87
2022-12-27T17:35:32.033Z,10.77
2022-12-27T17:38:10.078Z,13.17
2022-12-27T17:40:43.676Z,12.67
2022-12-27T17:43:35.610Z,9.10
2022-12-27T17:46:15.224Z,11.40
2022-12-27T17:48:44.564Z,16.23
2022-12-27T17:51:15.470Z,11.00
2022-12-27T17:54:06.985Z,21.33
2022-12-27T17:56:57.689Z,13.40
2022-12-27T17:59:28.052Z,15.17
2022-12-27T18:01:58.511Z,18.83
2022-12-27T18:04:28.671Z,17.33
2022-12-27T18:06:58.584Z,17.40
2022-12-27T18:09:41.339Z,18.43
2022-12-27T18:12:16.979Z,18.07
2022-12-27T18:14:46.958Z,19.07
2022-12-27T18:17:28.506Z,14.50
2022-12-27T18:19:58.695Z,16.57
2022-12-27T18:22:29.109Z,17.37
2022-12-27T18:25:01.244Z,18.50
2022-12-27T18:27:30.587Z,19.30
2022-12-27T18:29:59.897Z,14.23
2022-12-27T18:32:29.353Z,14.90
2022-12-27T18:35:01.038Z,12.90
2022-12-27T18:37:31.192Z,16.23
2022-12-27T18:40:04.843Z,16.43
2022-12-27T18:42:35.880Z,16.83
2022-12-27T18:45:06.757Z,21.87
2022-12-27T18:47:40.085Z,16.27
2022-12-27T18:50:17.806Z,15.30
2022-12-27T18:52:52.955Z,17.80
2022-12-27T18:55:27.783Z,16.93
2022-12-27T18:58:03.772Z,20.10
2022-12-27T19:00:33.307Z,22.87
2022-12-27T19:03:15.099Z,19.70
2022-12-27T19:05:58.329Z,22.83
2022-12-27T19:08:29.362Z,18.23
2022-12-27T19:11:00.308Z,22.13
2022-12-27T19:13:31.379Z,17.23
2022-12-27T19:16:01.138Z,20.03
2022-12-27T19:18:32.558Z,17.97
2022-12-27T19:21:03.043Z,16.77
2022-12-27T19:23:33.687Z,25.73
2022-12-27T19:26:07.061Z,22.23
2022-12-27T19:28:36.931Z,22.33
2022-12-27T19:31:18.375Z,13.83
2022-12-27T19:33:49.635Z,20.80
2022-12-27T19:36:19.071Z,23.53
2022-12-27T19:38:48.365Z,13.10
2022-12-27T19:41:19.322Z,17.23
2022-12-27T19:43:49.069Z,14.87
2022-12-27T19:46:19.309Z,16.63
2022-12-27T19:49:23.310Z,22.77
2022-12-27T19:51:39.156Z,19.03
2022-12-27T19:54:10.191Z,23.97
2022-12-27T19:56:41.171Z,25.07
2022-12-27T19:59:14.669Z,22.80
2022-12-27T20:01:45.703Z,25.97
2022-12-27T20:04:15.103Z,26.97
2022-12-27T20:06:44.633Z,25.33
2022-12-27T20:09:16.324Z,19.00
2022-12-27T20:11:47.575Z,25.33
2022-12-27T20:14:17.748Z,18.57
2022-12-27T20:16:47.504Z,18.63
2022-12-27T20:19:18.440Z,15.10
2022-12-27T20:21:48.175Z,16.87
2022-12-27T20:24:17.653Z,23.93
2022-12-27T20:26:48.374Z,18.17
2022-12-27T20:29:17.557Z,18.37
2022-12-27T20:31:48.952Z,17.10
2022-12-27T20:34:18.382Z,15.07
2022-12-27T20:36:47.569Z,19.20
2022-12-27T20:39:17.025Z,25.27
2022-12-27T20:41:46.330Z,25.10
2022-12-27T20:44:17.234Z,20.10
2022-12-27T20:46:47.719Z,19.70
2022-12-27T20:49:16.862Z,18.67
2022-12-27T20:51:46.127Z,19.77
2022-12-27T20:54:15.528Z,21.93
2022-12-27T20:56:44.732Z,23.03
2022-12-27T20:59:13.933Z,23.43
2022-12-27T21:01:44.713Z,16.60
2022-12-27T21:04:14.077Z,19.87
2022-12-27T21:06:43.451Z,21.90
2022-12-27T21:09:13.011Z,22.10
2022-12-27T21:11:42.409Z,29.80
2022-12-27T21:14:12.763Z,25.70
2022-12-27T21:16:42.106Z,26.63
2022-12-27T21:19:12.853Z,19.27
2022-12-27T21:21:42.045Z,26.83
2022-12-27T21:24:12.408Z,37.47
2022-12-27T21:26:42.068Z,29.67
2022-12-27T21:29:12.420Z,36.00
2022-12-27T21:31:42.004Z,29.00
2022-12-27T21:34:13.057Z,28.10
2022-12-27T21:36:42.554Z,29.13
2022-12-27T21:39:11.899Z,29.50
2022-12-27T21:41:41.862Z,26.47
2022-12-27T21:44:11.565Z,28.20
2022-12-27T21:46:41.643Z,22.63
2022-12-27T21:49:13.418Z,20.43
2022-12-27T21:51:43.460Z,24.90
2022-12-27T21:54:14.151Z,23.93
2022-12-27T21:56:43.606Z,24.03
2022-12-27T21:59:12.890Z,23.80
2022-12-27T22:01:50.317Z,24.53
2022-12-27T22:04:23.460Z,22.73
2022-12-27T22:06:52.678Z,24.93
2022-12-27T22:09:22.294Z,35.87
2022-12-27T22:11:51.682Z,31.73
2022-12-27T22:14:25.435Z,25.57
2022-12-27T22:16:55.818Z,24.00
2022-12-27T22:19:26.425Z,22.07
2022-12-27T22:21:55.803Z,23.63
2022-12-27T22:24:25.133Z,25.20
2022-12-27T22:26:54.345Z,29.83
2022-12-27T22:29:24.233Z,27.80
2022-12-27T22:31:53.761Z,25.60
2022-12-27T22:34:23.038Z,31.13
2022-12-27T22:36:54.529Z,25.00
2022-12-27T22:39:23.762Z,25.40
2022-12-27T22:41:52.990Z,27.67
2022-12-27T22:44:22.437Z,18.27
2022-12-27T22:47:24.598Z,28.17
2022-12-27T22:49:41.105Z,20.80
2022-12-27T22:52:11.695Z,32.33
2022-12-27T22:55:04.199Z,17.83
2022-12-27T22:57:30.331Z,21.43
2022-12-27T22:59:59.482Z,17.90
2022-12-27T23:02:28.842Z,17.87
2022-12-27T23:04:58.269Z,17.87
2022-12-27T23:08:05.156Z,24.20
2022-12-27T23:10:18.279Z,15.97
2022-12-27T23:12:47.429Z,19.90
2022-12-27T23:15:16.704Z,26.50
2022-12-27T23:17:46.085Z,17.70
2022-12-27T23:20:15.418Z,24.07
2022-12-27T23:22:45.997Z,22.07
2022-12-27T23:25:15.591Z,18.30
2022-12-27T23:27:44.701Z,16.53
2022-12-27T23:30:14.721Z,19.87
2022-12-27T23:32:43.863Z,25.63
2022-12-27T23:35:13.076Z,22.83
2022-12-27T23:37:42.222Z,17.27
2022-12-27T23:40:13.880Z,25.40
2022-12-27T23:42:43.079Z,18.40
2022-12-27T23:45:12.835Z,25.37
2022-12-27T23:47:42.306Z,28.97
2022-12-27T23:50:17.344Z,24.87
2022-12-27T23:52:50.150Z,22.77
2022-12-27T23:55:20.781Z,19.33
2022-12-27T23:57:50.166Z,21.33
